Time;durP1;ratioP1;P1;durP2;ratioP2;P2;SDS_P1;SDS_P2;PMS_P1;PMS_P2;Temp;Humidity;BMP_temperature;BMP_pressure;BME280_temperature;BME280_humidity;BME280_pressure;Samples;Min_cycle;Max_cycle;Signal;HPM_P1;HPM_P2
2022/09/05 01:29:50;;;;;;;9.30;4.40;;;;;;;19.30;100.00;95158.06;5018055;22;20051;-93
2022/09/05 01:32:34;;;;;;;7.72;3.65;;;;;;;19.41;100.00;95159.34;5041834;28;20040;-92
2022/09/05 01:35:05;;;;;;;;;;;;;;;19.41;100.00;95161.22;5023980;28;20029;-92
2022/09/05 01:37:36;;;;;;;9.20;4.30;;;;;;;18.71;100.00;95156.16;5056699;28;19920;-92
2022/09/05 01:40:28;;;;;;;16.48;4.85;;;;;;;18.69;100.00;95161.00;5035995;28;20033;-91
2022/09/05 01:43:22;;;;;;;9.52;4.25;;;;;;;18.44;100.00;95158.59;5025923;28;20024;-92
2022/09/05 01:45:52;;;;;;;11.07;4.07;;;;;;;18.91;100.00;95162.88;5057902;28;20029;-91
2022/09/05 01:48:52;;;;;;;13.55;3.63;;;;;;;19.15;100.00;95160.00;5041395;28;20131;-92
2022/09/05 01:52:00;;;;;;;9.07;3.78;;;;;;;19.36;100.00;95156.81;5057851;28;20033;-93
2022/09/05 01:54:52;;;;;;;6.97;3.70;;;;;;;19.40;100.00;95164.97;5041180;28;20028;-92
2022/09/05 01:57:29;;;;;;;6.32;3.40;;;;;;;19.32;100.00;95161.19;5057759;28;20025;-93
2022/09/05 02:00:36;;;;;;;7.93;3.50;;;;;;;19.26;100.00;95168.50;5041049;28;20090;-92
2022/09/05 02:03:29;;;;;;;10.55;4.30;;;;;;;18.87;100.00;95169.91;5009217;28;20045;-92
2022/09/05 02:06:38;;;;;;;8.85;3.95;;;;;;;18.99;100.00;95166.69;5004874;28;20030;-92
2022/09/05 02:09:22;;;;;;;6.00;3.60;;;;;;;19.24;100.00;95162.69;4997439;28;20144;-92
2022/09/05 02:12:01;;;;;;;7.90;3.65;;;;;;;19.03;100.00;95165.06;4997237;28;20034;-93
2022/09/05 02:14:35;;;;;;;7.03;3.70;;;;;;;19.16;100.00;95168.72;5009600;28;20034;-93
2022/09/05 02:17:14;;;;;;;8.30;3.55;;;;;;;18.84;100.00;95165.97;5020925;28;20430;-93
2022/09/05 02:19:46;;;;;;;4.80;3.53;;;;;;;18.73;100.00;95162.00;5004749;28;20037;-93
2022/09/05 02:22:21;;;;;;;8.18;3.67;;;;;;;18.92;100.00;95164.47;5004700;28;20075;-92
2022/09/05 02:24:53;;;;;;;4.93;3.58;;;;;;;19.02;100.00;95168.81;5020703;28;20438;-92
2022/09/05 02:27:39;;;;;;;13.73;3.90;;;;;;;19.09;100.00;95163.06;5021002;28;20063;-91
2022/09/05 02:30:08;;;;;;;5.75;3.53;;;;;;;19.18;100.00;95177.19;5004603;28;20037;-93
2022/09/05 02:32:55;;;;;;;7.30;3.40;;;;;;;18.81;100.00;95171.09;5020682;28;20062;-92
2022/09/05 02:35:45;;;;;;;14.10;3.40;;;;;;;19.08;100.00;95167.59;5038104;28;20060;-93
2022/09/05 02:38:31;;;;;;;8.18;3.92;;;;;;;19.13;100.00;95161.38;5037967;28;20056;-92
2022/09/05 02:40:58;;;;;;;4.97;3.40;;;;;;;18.99;100.00;95159.56;5020540;28;20029;-92
2022/09/05 02:43:31;;;;;;;6.30;3.38;;;;;;;19.02;100.00;95155.53;5020472;28;20029;-93
2022/09/05 02:46:03;;;;;;;7.25;3.30;;;;;;;19.05;100.00;95162.88;5004288;28;20128;-93
2022/09/05 02:48:39;;;;;;;8.95;3.58;;;;;;;18.79;100.00;95166.88;5004037;28;20025;-93
2022/09/05 02:51:11;;;;;;;9.93;4.18;;;;;;;18.30;100.00;95161.28;5020245;28;20032;-92
2022/09/05 02:53:38;;;;;;;9.70;4.28;;;;;;;18.68;100.00;95162.88;5003971;28;20028;-92
2022/09/05 02:56:41;;;;;;;5.15;3.45;;;;;;;19.05;100.00;95166.31;5003856;28;20033;-93
2022/09/05 02:59:34;;;;;;;7.18;3.75;;;;;;;18.96;100.00;95154.03;5020268;28;20052;-92
2022/09/05 03:02:20;;;;;;;12.05;3.97;;;;;;;18.95;100.00;95155.91;5037647;28;20025;-93
2022/09/05 03:04:59;;;;;;;7.18;3.50;;;;;;;19.10;100.00;95151.34;5020122;28;20042;-92
2022/09/05 03:07:57;;;;;;;5.57;3.30;;;;;;;19.15;100.00;95159.19;5003651;28;20036;-93
2022/09/05 03:10:34;;;;;;;5.63;3.78;;;;;;;19.12;100.00;95157.16;5036038;28;20041;-92
2022/09/05 03:13:05;;;;;;;4.10;2.90;;;;;;;19.13;100.00;95148.84;5020403;28;20075;-93
2022/09/05 03:15:54;;;;;;;8.48;3.65;;;;;;;18.69;100.00;95150.38;5037412;28;20029;-92
2022/09/05 03:18:50;;;;;;;9.05;4.07;;;;;;;18.21;100.00;95141.84;5018084;28;20026;-92
2022/09/05 03:21:53;;;;;;;10.45;4.10;;;;;;;18.21;100.00;95150.56;5019758;28;20501;-92
2022/09/05 03:24:47;;;;;;;5.82;3.75;;;;;;;18.72;100.00;95147.91;5019859;28;20028;-92
2022/09/05 03:27:31;;;;;;;9.48;3.70;;;;;;;18.76;100.00;95148.88;5024922;28;20488;-92
2022/09/05 03:30:10;;;;;;;9.15;4.38;;;;;;;18.85;100.00;95148.94;5044840;28;21386;-92
2022/09/05 03:33:10;;;;;;;5.80;4.05;;;;;;;18.90;100.00;95156.00;5006716;28;20056;-92
2022/09/05 03:35:54;;;;;;;5.00;3.53;;;;;;;18.98;100.00;95157.16;5047826;28;20072;-92
2022/09/05 03:38:25;;;;;;;6.50;3.75;;;;;;;18.96;100.00;95154.81;5056817;28;20079;-92
2022/09/05 03:41:08;;;;;;;5.72;3.30;;;;;;;18.91;100.00;95153.06;5056866;28;20040;-92
2022/09/05 03:43:34;;;;;;;7.30;4.20;;;;;;;18.84;100.00;95149.25;5056912;28;20357;-92
2022/09/05 03:46:33;;;;;;;7.28;4.03;;;;;;;18.56;100.00;95152.00;5056730;28;20033;-92
2022/09/05 03:49:12;;;;;;;7.85;3.83;;;;;;;18.77;100.00;95152.34;5039475;28;20453;-92
2022/09/05 03:52:05;;;;;;;6.88;3.97;;;;;;;18.97;100.00;95151.09;5022991;28;20427;-92
2022/09/05 03:54:36;;;;;;;8.93;3.75;;;;;;;19.06;100.00;95154.59;5039992;28;20132;-92
2022/09/05 03:57:20;;;;;;;5.88;3.70;;;;;;;19.07;100.00;95158.81;5055793;28;20353;-92
2022/09/05 03:59:46;;;;;;;10.25;3.70;;;;;;;19.26;100.00;95157.06;5055730;28;20075;-93
2022/09/05 04:02:15;;;;;;;14.85;3.92;;;;;;;19.05;100.00;95153.03;5055825;28;20061;-94
2022/09/05 04:04:40;;;;;;;8.48;3.80;;;;;;;18.57;100.00;95150.91;5039082;28;20025;-92
2022/09/05 04:07:10;;;;;;;8.35;3.35;;;;;;;18.95;100.00;95142.63;5055602;28;20036;-92
2022/09/05 04:09:39;;;;;;;7.10;3.45;;;;;;;19.04;100.00;95146.16;5039052;28;20322;-93
2022/09/05 04:12:16;;;;;;;5.80;3.45;;;;;;;19.03;100.00;95154.44;5022756;28;20039;-93
2022/09/05 04:15:31;;;;;;;16.48;4.45;;;;;;;18.84;100.00;95162.53;5056664;28;20033;-93
2022/09/05 04:17:57;;;;;;;;;;;;;;;18.99;100.00;95156.91;4976466;28;20038;-93
2022/09/05 04:20:48;;;;;;;12.00;3.92;;;;;;;18.57;100.00;95156.22;4960023;28;19914;-91
2022/09/05 04:23:32;;;;;;;9.13;4.38;;;;;;;18.30;100.00;95166.59;5000976;28;20048;-92
2022/09/05 04:26:35;;;;;;;7.65;4.00;;;;;;;18.36;100.00;95165.41;5056763;28;20029;-93
2022/09/05 04:29:13;;;;;;;8.90;4.25;;;;;;;18.62;100.00;95166.72;5038933;28;20037;-93
2022/09/05 04:31:49;;;;;;;10.10;3.60;;;;;;;18.69;100.00;95167.09;5039282;28;20035;-93
2022/09/05 04:34:45;;;;;;;7.47;3.67;;;;;;;18.74;100.00;95166.22;5055493;28;20353;-92
2022/09/05 04:37:31;;;;;;;7.53;4.72;;;;;;;18.41;100.00;95166.34;5039861;28;20075;-93
2022/09/05 04:40:28;;;;;;;7.82;4.03;;;;;;;18.51;100.00;95169.59;5042635;28;20035;-92
2022/09/05 04:42:57;;;;;;;4.85;3.90;;;;;;;18.61;100.00;95167.78;5059895;28;20032;-90
2022/09/05 04:45:23;;;;;;;6.00;3.83;;;;;;;18.76;100.00;95164.81;5025464;28;20457;-90
2022/09/05 04:47:51;;;;;;;10.48;3.92;;;;;;;18.80;100.00;95170.31;5042187;28;20064;-91
2022/09/05 04:50:19;;;;;;;9.90;4.25;;;;;;;18.79;100.00;95176.69;5041902;28;20166;-90
2022/09/05 04:53:07;;;;;;;9.75;3.55;;;;;;;18.96;100.00;95177.94;5025523;28;20497;-90
2022/09/05 04:55:43;;;;;;;4.43;3.80;;;;;;;19.06;100.00;95178.50;5041813;28;20412;-90
2022/09/05 04:58:25;;;;;;;6.50;3.92;;;;;;;18.71;100.00;95175.53;5059622;28;20025;-90
2022/09/05 05:00:55;;;;;;;8.73;4.03;;;;;;;18.35;100.00;95174.44;5041844;28;20040;-90
2022/09/05 05:03:32;;;;;;;7.68;4.35;;;;;;;18.51;100.00;95176.75;5041648;28;20028;-90
2022/09/05 05:06:21;;;;;;;5.97;3.55;;;;;;;18.97;100.00;95188.25;5038290;28;20061;-90
2022/09/05 05:09:07;;;;;;;7.35;4.20;;;;;;;19.00;100.00;95179.72;5022242;28;20105;-90
2022/09/05 05:11:47;;;;;;;9.07;4.00;;;;;;;19.04;100.00;95180.66;5021839;28;20032;-91
2022/09/05 05:14:31;;;;;;;11.60;4.40;;;;;;;18.94;100.00;95183.56;5021825;28;20026;-92
2022/09/05 05:17:07;;;;;;;8.18;4.00;;;;;;;18.78;100.00;95181.22;5021791;28;20018;-91
2022/09/05 05:19:40;;;;;;;6.28;3.53;;;;;;;19.03;100.00;95184.41;5021977;28;20124;-92
2022/09/05 05:22:12;;;;;;;10.02;3.88;;;;;;;19.32;100.00;95193.84;5022016;28;20026;-92
2022/09/05 05:24:44;;;;;;;4.95;3.40;;;;;;;19.38;100.00;95196.38;5021845;28;20029;-92
2022/09/05 05:27:18;;;;;;;9.52;3.90;;;;;;;19.53;100.00;95190.69;5021658;28;20029;-92
2022/09/05 05:29:47;;;;;;;4.55;3.35;;;;;;;19.50;100.00;95204.56;5021733;28;20048;-92
2022/09/05 05:32:29;;;;;;;6.28;4.05;;;;;;;19.25;100.00;95198.81;5031310;28;20025;-92
2022/09/05 05:35:06;;;;;;;6.28;3.55;;;;;;;19.23;100.00;95200.19;5025143;28;20032;-92
2022/09/05 05:37:35;;;;;;;5.32;3.47;;;;;;;19.28;100.00;95203.50;5041468;28;20406;-93
2022/09/05 05:40:14;;;;;;;4.63;3.30;;;;;;;19.67;100.00;95206.56;5041342;28;20413;-93
2022/09/05 05:42:41;;;;;;;4.95;3.28;;;;;;;19.82;100.00;95204.59;5058073;28;20388;-93
2022/09/05 05:45:16;;;;;;;10.32;4.10;;;;;;;19.83;100.00;95206.16;5041526;28;20111;-92
2022/09/05 05:47:44;;;;;;;7.30;3.60;;;;;;;19.54;100.00;95208.22;5040878;28;20495;-93
2022/09/05 05:50:48;;;;;;;5.82;3.72;;;;;;;19.68;100.00;95205.47;5041215;28;20023;-92
2022/09/05 05:53:32;;;;;;;9.65;4.07;;;;;;;20.30;100.00;95209.19;5057968;28;20396;-92
2022/09/05 05:56:07;;;;;;;9.20;4.00;;;;;;;20.51;100.00;95216.59;5058735;28;20025;-93
2022/09/05 05:59:14;;;;;;;5.35;3.35;;;;;;;20.67;100.00;95203.66;5056395;28;20033;-93
2022/09/05 06:02:10;;;;;;;6.35;3.45;;;;;;;20.90;100.00;95209.66;5028024;28;20142;-93
2022/09/05 06:05:17;;;;;;;7.65;3.83;;;;;;;20.45;100.00;95209.88;5042836;28;20056;-93
2022/09/05 06:07:49;;;;;;;6.00;3.53;;;;;;;20.65;100.00;95211.13;5040109;28;20037;-92
2022/09/05 06:10:42;;;;;;;5.95;3.80;;;;;;;21.08;100.00;95214.16;5058417;28;20024;-92
2022/09/05 06:13:35;;;;;;;5.93;3.47;;;;;;;21.28;100.00;95218.88;5058402;28;20024;-93
2022/09/05 06:16:25;;;;;;;5.93;3.13;;;;;;;21.51;100.00;95220.59;5058310;28;20024;-92
2022/09/05 06:19:29;;;;;;;7.13;3.10;;;;;;;21.59;100.00;95222.44;5040606;28;20028;-91
2022/09/05 06:22:09;;;;;;;8.85;2.85;;;;;;;21.80;100.00;95224.47;5057610;28;20024;-94
2022/09/05 06:25:13;;;;;;;10.95;3.17;;;;;;;21.63;100.00;95226.06;5058212;28;20063;-92
2022/09/05 06:28:05;;;;;;;8.70;3.30;;;;;;;21.21;100.00;95223.13;5056817;28;20021;-91
2022/09/05 06:30:38;;;;;;;9.32;3.80;;;;;;;21.65;100.00;95228.38;5040321;28;20024;-90
2022/09/05 06:33:19;;;;;;;7.90;3.47;;;;;;;22.18;100.00;95229.81;5023734;28;20025;-90
2022/09/05 06:35:45;;;;;;;6.65;3.17;;;;;;;22.17;100.00;95238.16;5056618;28;20512;-90
2022/09/05 06:38:48;;;;;;;9.05;3.63;;;;;;;22.33;100.00;95233.06;5057670;28;20059;-91
2022/09/05 06:41:14;;;;;;;3.85;2.78;;;;;;;22.26;100.00;95233.56;5056600;28;20032;-90
2022/09/05 06:44:14;;;;;;;4.75;3.03;;;;;;;22.20;100.00;95231.38;5056882;28;20040;-90
2022/09/05 06:46:43;;;;;;;7.18;3.17;;;;;;;22.30;100.00;95229.13;5025469;28;20036;-90
2022/09/05 06:49:31;;;;;;;6.53;3.22;;;;;;;22.53;100.00;95239.59;5019916;28;20079;-90
2022/09/05 06:52:08;;;;;;;6.07;3.40;;;;;;;22.33;100.00;95238.41;5019875;28;20040;-90
2022/09/05 06:54:56;;;;;;;7.45;3.25;;;;;;;22.51;100.00;95239.13;5019937;28;20374;-90
2022/09/05 06:57:40;;;;;;;4.22;2.72;;;;;;;22.63;100.00;95240.34;5037359;28;20030;-90
2022/09/05 07:00:30;;;;;;;5.47;3.60;;;;;;;22.75;100.00;95235.06;5019032;28;20338;-90
2022/09/05 07:03:15;;;;;;;5.72;3.50;;;;;;;22.35;100.00;95230.06;5019741;28;20418;-90
2022/09/05 07:06:04;;;;;;;5.70;3.22;;;;;;;22.60;100.00;95236.41;5019838;28;20434;-90
2022/09/05 07:08:33;;;;;;;6.15;2.95;;;;;;;23.00;100.00;95229.84;4988601;28;20049;-90
2022/09/05 07:11:09;;;;;;;4.45;3.20;;;;;;;22.92;100.00;95233.38;5019671;28;20033;-90
2022/09/05 07:13:44;;;;;;;7.72;3.47;;;;;;;23.22;100.00;95228.75;5019729;28;20343;-90
2022/09/05 07:16:21;;;;;;;10.73;3.50;;;;;;;23.28;100.00;95235.50;5003210;28;20025;-90
2022/09/05 07:19:10;;;;;;;7.68;3.33;;;;;;;23.43;100.00;95233.31;5003323;28;20037;-90
2022/09/05 07:22:00;;;;;;;6.80;3.28;;;;;;;23.50;100.00;95230.88;5019520;28;20083;-90
2022/09/05 07:24:29;;;;;;;5.38;2.95;;;;;;;23.67;100.00;95237.19;5036929;28;20037;-90
2022/09/05 07:26:57;;;;;;;7.68;3.40;;;;;;;23.76;100.00;95245.91;5003350;28;20450;-90
2022/09/05 07:29:31;;;;;;;9.60;3.42;;;;;;;23.57;100.00;95243.72;5002992;28;20441;-90
2022/09/05 07:31:58;;;;;;;6.25;3.42;;;;;;;23.68;100.00;95246.78;5003111;28;20052;-90
2022/09/05 07:34:30;;;;;;;9.27;3.10;;;;;;;23.67;100.00;95237.19;5019396;28;20033;-90
2022/09/05 07:37:37;;;;;;;5.13;2.95;;;;;;;23.55;100.00;95236.03;5019197;28;20033;-89
2022/09/05 07:40:08;;;;;;;6.90;2.97;;;;;;;23.35;100.00;95236.84;4937535;29;20524;-90
2022/09/05 07:42:51;;;;;;;5.35;3.30;;;;;;;23.21;100.00;95237.88;4921913;29;20040;-90
2022/09/05 07:45:23;;;;;;;6.43;3.38;;;;;;;23.50;100.00;95244.25;4974947;28;20087;-90
2022/09/05 07:48:10;;;;;;;12.50;3.72;;;;;;;23.68;100.00;95244.88;5002795;28;20501;-90
2022/09/05 07:50:45;;;;;;;3.88;2.70;;;;;;;23.83;100.00;95248.84;5019310;28;20151;-90
2022/09/05 07:53:14;;;;;;;6.35;3.33;;;;;;;24.09;100.00;95252.38;5019188;28;20083;-90
2022/09/05 07:55:40;;;;;;;6.07;3.22;;;;;;;24.18;100.00;95255.72;5002727;28;20026;-91
2022/09/05 07:58:10;;;;;;;7.13;2.95;;;;;;;24.27;100.00;95256.38;5002966;28;20060;-91
2022/09/05 08:00:36;;;;;;;6.20;2.63;;;;;;;24.46;100.00;95262.31;5002707;28;20071;-90
2022/09/05 08:03:13;;;;;;;6.88;3.42;;;;;;;24.43;100.00;95261.88;5002720;28;20049;-90
2022/09/05 08:05:43;;;;;;;6.45;3.28;;;;;;;24.54;100.00;95262.19;5019031;28;20083;-91
2022/09/05 08:08:15;;;;;;;5.35;2.85;;;;;;;24.88;100.00;95254.06;5019074;28;20029;-91
2022/09/05 08:10:44;;;;;;;4.97;3.17;;;;;;;24.93;100.00;95261.84;5002988;28;20025;-90
2022/09/05 08:13:19;;;;;;;4.90;3.85;;;;;;;25.11;100.00;95261.63;5023323;28;20040;-90
2022/09/05 08:15:47;;;;;;;4.63;3.33;;;;;;;25.30;100.00;95257.53;5023151;28;20029;-90
2022/09/05 08:18:15;;;;;;;7.32;3.38;;;;;;;25.27;100.00;95262.47;5022903;28;20033;-90
2022/09/05 08:21:06;;;;;;;7.57;3.70;;;;;;;25.22;100.00;95262.69;5022660;28;20041;-91
2022/09/05 08:24:10;;;;;;;5.32;3.42;;;;;;;25.17;100.00;95260.25;5022897;28;20080;-91
2022/09/05 08:26:38;;;;;;;9.48;4.00;;;;;;;25.31;100.00;95259.84;5022682;28;20037;-90
2022/09/05 08:29:29;;;;;;;9.00;3.67;;;;;;;25.62;100.00;95253.06;5022660;28;20091;-91
2022/09/05 08:32:01;;;;;;;10.00;3.25;;;;;;;25.78;100.00;95250.41;5023047;28;20029;-91
2022/09/05 08:34:47;;;;;;;7.88;4.07;;;;;;;25.64;100.00;95245.47;5022591;28;20132;-90
2022/09/05 08:37:17;;;;;;;4.57;3.10;;;;;;;25.94;100.00;95253.13;5022569;28;20061;-91
2022/09/05 08:39:44;;;;;;;6.20;3.95;;;;;;;25.86;100.00;95251.38;5006037;28;20021;-90
2022/09/05 08:42:21;;;;;;;5.45;3.33;;;;;;;26.00;100.00;95258.22;5006140;28;20446;-91
2022/09/05 08:45:16;;;;;;;6.25;3.40;;;;;;;25.94;100.00;95257.69;5058029;28;20033;-91
2022/09/05 08:47:53;;;;;;;4.65;3.08;;;;;;;25.99;100.00;95246.72;5016391;28;20029;-90
2022/09/05 08:50:53;;;;;;;5.38;2.90;;;;;;;26.15;100.00;95245.94;5059867;28;20052;-91
2022/09/05 08:53:30;;;;;;;8.18;3.00;;;;;;;25.96;100.00;95252.75;5040049;28;20044;-90
2022/09/05 08:56:32;;;;;;;12.10;3.47;;;;;;;25.70;100.00;95246.00;5059598;28;20029;-89
2022/09/05 08:59:22;;;;;;;4.65;2.88;;;;;;;25.89;95.78;95252.59;5059098;28;20102;-91
2022/09/05 09:01:54;;;;;;;3.72;2.55;;;;;;;25.64;100.00;95253.50;5025482;28;20032;-90
2022/09/05 09:04:42;;;;;;;6.32;3.17;;;;;;;25.70;100.00;95248.69;5059546;28;20029;-91
2022/09/05 09:07:33;;;;;;;7.15;2.90;;;;;;;26.09;99.34;95254.25;5025268;28;20028;-90
2022/09/05 09:10:14;;;;;;;4.43;3.03;;;;;;;26.10;100.00;95247.00;5059424;28;20439;-90
2022/09/05 09:12:54;;;;;;;5.97;2.65;;;;;;;26.24;93.83;95250.06;5042123;28;20032;-90
2022/09/05 09:15:26;;;;;;;6.13;2.60;;;;;;;26.24;86.45;95249.25;5042011;28;20033;-90
2022/09/05 09:17:51;;;;;;;5.43;2.70;;;;;;;25.96;94.58;95244.72;5041602;28;20033;-91
2022/09/05 09:20:55;;;;;;;4.47;2.55;;;;;;;26.30;88.42;95250.56;5041611;28;20059;-91
2022/09/05 09:23:32;;;;;;;4.43;2.30;;;;;;;26.17;85.67;95238.31;5040645;28;20037;-92
2022/09/05 09:26:17;;;;;;;6.07;1.98;;;;;;;26.48;88.54;95248.31;5059633;28;20041;-91
2022/09/05 09:29:07;;;;;;;4.78;2.40;;;;;;;26.51;94.55;95250.28;5026938;28;20155;-91
2022/09/05 09:32:04;;;;;;;3.17;2.28;;;;;;;26.39;91.29;95245.03;5021025;28;20087;-92
2022/09/05 09:34:35;;;;;;;9.32;2.08;;;;;;;26.52;89.97;95246.47;5039048;28;20040;-91
2022/09/05 09:37:37;;;;;;;5.90;2.00;;;;;;;26.75;81.74;95242.38;5005515;28;20131;-90
2022/09/05 09:40:09;;;;;;;5.43;2.20;;;;;;;26.74;91.00;95238.13;5021304;28;20422;-90
2022/09/05 09:42:54;;;;;;;7.28;2.28;;;;;;;26.86;99.09;95237.22;5038835;28;20033;-92
2022/09/05 09:45:51;;;;;;;4.53;2.00;;;;;;;27.00;95.13;95231.41;5005028;28;20029;-91
2022/09/05 09:48:26;;;;;;;5.85;2.28;;;;;;;26.97;91.18;95230.19;5039073;28;20025;-91
2022/09/05 09:50:54;;;;;;;5.30;1.80;;;;;;;27.22;85.47;95236.06;5038845;28;20051;-92
2022/09/05 09:53:36;;;;;;;4.55;2.08;;;;;;;26.70;90.78;95224.59;5021473;28;20029;-91
2022/09/05 09:56:39;;;;;;;2.85;1.90;;;;;;;26.83;85.62;95230.66;5038685;28;20034;-91
2022/09/05 09:59:04;;;;;;;6.22;2.42;;;;;;;26.72;90.97;95226.94;5039313;28;20040;-92
2022/09/05 10:01:50;;;;;;;9.10;2.40;;;;;;;27.02;93.88;95224.53;5038600;28;20034;-92
2022/09/05 10:04:33;;;;;;;3.95;1.98;;;;;;;26.87;90.13;95226.16;5038617;28;20057;-91
2022/09/05 10:07:07;;;;;;;12.57;2.45;;;;;;;27.33;87.26;95219.38;5021153;28;20183;-92
2022/09/05 10:09:48;;;;;;;2.92;1.80;;;;;;;27.60;83.83;95216.81;5020709;28;20025;-92
2022/09/05 10:12:22;;;;;;;3.28;2.17;;;;;;;27.12;86.90;95214.34;5021035;28;20044;-92
2022/09/05 10:14:59;;;;;;;6.90;2.10;;;;;;;27.27;78.41;95216.19;5020861;28;20040;-89
2022/09/05 10:17:43;;;;;;;7.95;2.45;;;;;;;26.96;81.11;95207.88;5020737;28;20415;-89
2022/09/05 10:20:20;;;;;;;5.63;2.00;;;;;;;27.71;78.08;95214.31;5037777;28;20037;-87
2022/09/05 10:22:59;;;;;;;4.95;2.00;;;;;;;27.63;78.69;95208.81;5020374;28;20037;-88
2022/09/05 10:25:43;;;;;;;4.72;1.83;;;;;;;27.76;76.21;95209.44;5004502;28;20040;-89
2022/09/05 10:28:56;;;;;;;5.75;2.15;;;;;;;27.87;77.77;95203.47;5037868;28;20445;-89
2022/09/05 10:31:46;;;;;;;7.95;2.17;;;;;;;27.48;87.31;95199.69;5007735;28;20103;-89
2022/09/05 10:34:45;;;;;;;6.00;1.70;;;;;;;27.43;79.35;95199.97;5037856;28;20430;-90
2022/09/05 10:37:12;;;;;;;3.25;1.50;;;;;;;27.47;71.86;95194.63;5020213;28;20036;-90
2022/09/05 10:39:41;;;;;;;3.42;1.80;;;;;;;27.53;74.96;95193.25;5020348;28;20030;-88
2022/09/05 10:42:20;;;;;;;4.00;1.80;;;;;;;27.21;74.61;95186.09;5020405;28;20084;-89
2022/09/05 10:44:55;;;;;;;4.60;1.60;;;;;;;27.75;74.78;95191.72;5020280;28;20065;-88
2022/09/05 10:47:56;;;;;;;4.22;1.80;;;;;;;28.08;76.95;95184.94;5003729;28;20353;-89
2022/09/05 10:50:42;;;;;;;3.83;1.90;;;;;;;28.26;71.68;95176.38;5027003;28;20031;-89
2022/09/05 10:53:19;;;;;;;2.47;1.85;;;;;;;27.96;72.41;95170.91;5019648;28;20119;-89
2022/09/05 10:56:14;;;;;;;6.10;1.65;;;;;;;28.54;73.15;95172.53;5052407;28;20036;-88
2022/09/05 10:58:59;;;;;;;3.95;1.88;;;;;;;28.71;72.32;95165.84;5003712;28;20029;-88
2022/09/05 11:01:43;;;;;;;6.97;2.25;;;;;;;28.16;74.20;95169.66;5020200;28;20389;-89
2022/09/05 11:04:48;;;;;;;5.53;2.00;;;;;;;28.70;71.66;95164.28;5003810;28;20345;-89
2022/09/05 11:07:18;;;;;;;4.55;2.10;;;;;;;28.43;70.50;95161.63;5041871;28;20031;-89
2022/09/05 11:09:55;;;;;;;2.33;1.77;;;;;;;28.54;75.08;95164.47;5056212;28;20027;-88
2022/09/05 11:12:52;;;;;;;3.13;1.83;;;;;;;28.53;70.88;95157.50;5040129;28;20448;-89
2022/09/05 11:15:53;;;;;;;5.55;1.88;;;;;;;28.34;75.20;95147.66;5056060;28;20178;-89
2022/09/05 11:18:44;;;;;;;4.30;2.08;;;;;;;28.71;69.83;95140.81;5057016;28;20021;-89
2022/09/05 11:21:28;;;;;;;6.55;1.52;;;;;;;28.62;69.76;95139.16;5045923;28;20041;-89
2022/09/05 11:23:58;;;;;;;5.25;1.90;;;;;;;29.08;71.76;95142.81;5055922;28;20031;-89
2022/09/05 11:26:32;;;;;;;2.50;1.65;;;;;;;29.00;71.24;95141.19;5039218;28;20434;-88
2022/09/05 11:29:08;;;;;;;4.10;1.60;;;;;;;28.87;63.77;95137.94;5039142;28;20112;-88
2022/09/05 11:32:15;;;;;;;5.38;1.85;;;;;;;28.52;64.15;95139.78;5035028;28;20025;-90
2022/09/05 11:34:50;;;;;;;5.25;1.58;;;;;;;29.20;66.23;95134.47;5009210;28;20044;-90
2022/09/05 11:37:40;;;;;;;3.60;1.70;;;;;;;29.02;68.10;95128.88;5002815;28;20033;-89
2022/09/05 11:40:41;;;;;;;4.75;1.73;;;;;;;29.16;66.80;95116.69;5036724;28;20041;-90
2022/09/05 11:43:09;;;;;;;6.40;1.60;;;;;;;29.58;64.84;95114.81;4992841;28;20361;-88
2022/09/05 11:45:53;;;;;;;3.90;1.80;;;;;;;29.44;65.03;95110.84;5018747;28;20064;-88
2022/09/05 11:48:38;;;;;;;5.50;1.65;;;;;;;29.49;67.86;95110.50;5036664;28;20026;-89
2022/09/05 11:51:21;;;;;;;4.40;2.05;;;;;;;29.53;70.65;95107.03;5019277;28;20422;-88
2022/09/05 11:53:55;;;;;;;;;;;;;;;30.05;73.39;95110.56;5019652;28;20378;-90
2022/09/05 11:56:42;;;;;;;7.63;2.45;;;;;;;29.90;72.75;95111.59;5036483;28;19955;-89
2022/09/05 11:59:29;;;;;;;6.95;2.00;;;;;;;29.18;75.72;95107.09;5038691;28;20040;-89
2022/09/05 12:02:00;;;;;;;3.13;1.92;;;;;;;29.82;73.04;95102.66;5056697;28;20134;-89
2022/09/05 12:04:26;;;;;;;3.47;1.98;;;;;;;30.10;69.96;95108.66;5056475;28;20057;-90
2022/09/05 12:06:56;;;;;;;6.05;1.95;;;;;;;29.20;86.74;95107.50;5038505;28;20036;-90
2022/09/05 12:09:30;;;;;;;4.30;2.10;;;;;;;28.93;84.49;95110.28;5056358;28;20017;-90
2022/09/05 12:12:11;;;;;;;4.20;2.35;;;;;;;29.17;83.23;95099.34;5038774;28;20035;-90
2022/09/05 12:15:15;;;;;;;8.93;2.63;;;;;;;29.18;78.38;95095.50;5056288;28;20021;-90
2022/09/05 12:18:18;;;;;;;5.88;2.00;;;;;;;29.30;73.28;95099.88;5056316;28;20053;-91
2022/09/05 12:20:53;;;;;;;4.85;2.50;;;;;;;27.90;74.25;95092.34;5038661;28;20036;-91
2022/09/05 12:23:48;;;;;;;4.32;2.05;;;;;;;28.94;68.75;95086.81;5056290;28;20025;-90
2022/09/05 12:26:39;;;;;;;4.65;2.00;;;;;;;29.49;68.50;95091.59;5018678;28;20164;-89
2022/09/05 12:29:25;;;;;;;3.83;2.22;;;;;;;29.74;70.42;95087.53;5019212;28;20025;-89
2022/09/05 12:31:57;;;;;;;5.68;2.20;;;;;;;29.76;66.72;95091.44;5002528;28;20030;-90
2022/09/05 12:34:49;;;;;;;6.47;1.80;;;;;;;29.76;74.60;95085.25;5019023;28;20021;-89
2022/09/05 12:37:36;;;;;;;5.30;2.00;;;;;;;29.31;78.50;95074.44;5019023;28;20191;-91
2022/09/05 12:40:09;;;;;;;4.80;2.17;;;;;;;28.37;75.07;95079.56;5035099;28;20025;-90
2022/09/05 12:42:55;;;;;;;5.85;2.28;;;;;;;28.64;68.59;95076.81;5002367;28;20048;-90
2022/09/05 12:45:30;;;;;;;5.53;2.53;;;;;;;29.43;68.72;95071.50;5036257;28;20065;-92
2022/09/05 12:48:12;;;;;;;6.07;2.20;;;;;;;29.57;72.43;95064.69;5018759;28;20136;-90
2022/09/05 12:50:43;;;;;;;5.15;1.90;;;;;;;29.34;71.36;95074.50;5018733;28;20040;-89
2022/09/05 12:53:12;;;;;;;4.32;1.95;;;;;;;29.89;69.17;95074.94;5018635;28;20029;-92
2022/09/05 12:55:46;;;;;;;2.90;2.10;;;;;;;29.00;67.65;95069.13;5034807;28;20053;-90
2022/09/05 12:58:24;;;;;;;7.00;2.25;;;;;;;29.23;68.13;95068.22;5037008;28;20029;-89
2022/09/05 13:00:53;;;;;;;4.78;2.28;;;;;;;28.96;71.92;95064.84;5022121;28;20018;-89
2022/09/05 13:03:27;;;;;;;3.85;2.13;;;;;;;29.47;71.90;95066.13;5035860;28;20024;-90
2022/09/05 13:06:02;;;;;;;6.03;2.40;;;;;;;29.41;70.50;95062.97;5041687;28;20032;-88
2022/09/05 13:08:38;;;;;;;5.55;2.58;;;;;;;28.84;71.59;95052.41;5041899;28;20025;-89
2022/09/05 13:11:07;;;;;;;5.03;2.30;;;;;;;28.99;72.95;95054.09;5041912;28;20032;-90
2022/09/05 13:13:45;;;;;;;4.55;1.95;;;;;;;28.58;73.50;95054.78;5058121;28;20039;-90
2022/09/05 13:16:21;;;;;;;3.85;2.47;;;;;;;28.44;71.02;95046.53;5025260;28;20025;-89
2022/09/05 13:18:49;;;;;;;8.50;2.30;;;;;;;29.14;70.18;95044.25;5041800;28;20032;-89
2022/09/05 13:21:19;;;;;;;5.90;2.47;;;;;;;29.75;66.53;95051.28;5024929;28;20071;-89
2022/09/05 13:24:16;;;;;;;3.17;2.08;;;;;;;30.48;66.59;95045.16;5041311;28;20507;-89
2022/09/05 13:27:07;;;;;;;4.85;2.05;;;;;;;30.48;65.98;95039.75;5041956;28;20025;-89
2022/09/05 13:29:47;;;;;;;4.25;1.75;;;;;;;30.82;63.71;95046.09;5014736;28;20037;-89
2022/09/05 13:32:42;;;;;;;4.38;2.05;;;;;;;30.03;62.87;95034.53;5007408;28;20124;-90
2022/09/05 13:35:13;;;;;;;5.60;2.25;;;;;;;30.36;64.96;95033.91;5005358;28;20048;-90
2022/09/05 13:37:46;;;;;;;7.78;4.32;;;;;;;30.96;59.97;95023.69;5038820;28;20025;-90
2022/09/05 13:40:21;;;;;;;5.55;2.58;;;;;;;30.74;62.16;95026.34;5005622;28;20033;-90
2022/09/05 13:43:14;;;;;;;7.88;2.40;;;;;;;29.89;62.61;95023.63;5021417;28;20117;-89
2022/09/05 13:45:56;;;;;;;4.32;1.77;;;;;;;31.08;61.13;95020.63;5017049;28;20091;-89
2022/09/05 13:48:46;;;;;;;4.70;1.85;;;;;;;31.21;60.24;95028.38;5021411;28;20124;-90
2022/09/05 13:51:26;;;;;;;5.82;2.20;;;;;;;31.26;57.67;95030.72;5026598;28;20446;-89
2022/09/05 13:54:22;;;;;;;3.35;1.95;;;;;;;31.27;60.18;95033.03;5021253;28;20025;-89
2022/09/05 13:57:00;;;;;;;4.93;1.90;;;;;;;32.03;61.27;95045.00;5038558;28;20025;-89
2022/09/05 13:59:35;;;;;;;5.93;1.88;;;;;;;31.36;61.24;95029.19;5005427;28;20029;-88
2022/09/05 14:03:02;;;;;;;4.10;2.10;;;;;;;31.21;62.37;95042.72;5021333;28;20033;-88
2022/09/05 14:05:47;;;;;;;5.60;2.03;;;;;;;31.45;56.86;95030.34;4939111;29;20031;-89